createdAt,value
2022-09-28T00:02:35.670Z,2.05
2022-09-28T00:05:21.566Z,0.60
2022-09-28T00:08:07.378Z,1.60
2022-09-28T00:10:57.038Z,1.30
2022-09-28T00:13:44.060Z,0.85
2022-09-28T00:16:36.078Z,0.98
2022-09-28T00:19:21.849Z,1.05
2022-09-28T00:22:07.605Z,1.00
2022-09-28T00:24:53.655Z,0.60
2022-09-28T00:27:40.282Z,1.83
2022-09-28T00:30:26.394Z,0.77
2022-09-28T00:33:12.045Z,0.60
2022-09-28T00:35:58.652Z,1.13
2022-09-28T00:38:44.457Z,0.73
2022-09-28T00:41:30.334Z,0.85
2022-09-28T00:44:22.520Z,0.80
2022-09-28T00:47:13.994Z,1.20
2022-09-28T00:50:06.037Z,0.80
2022-09-28T00:52:57.219Z,0.65
2022-09-28T00:55:51.269Z,0.63
2022-09-28T01:01:24.442Z,1.30
2022-09-28T01:04:10.929Z,1.00
2022-09-28T01:06:58.242Z,2.10
2022-09-28T01:09:46.144Z,3.05
2022-09-28T01:12:33.915Z,1.92
2022-09-28T01:15:21.914Z,1.15
2022-09-28T01:18:22.730Z,1.45
2022-09-28T01:21:53.393Z,1.20
2022-09-28T01:24:42.757Z,1.45
2022-09-28T01:27:29.993Z,0.93
2022-09-28T01:30:18.153Z,0.60
2022-09-28T01:33:07.615Z,0.50
2022-09-28T01:36:15.801Z,1.15
2022-09-28T01:39:08.317Z,0.75
2022-09-28T01:42:06.287Z,0.55
2022-09-28T01:44:57.236Z,0.32
2022-09-28T01:47:43.723Z,0.50
2022-09-28T01:50:35.636Z,0.40
2022-09-28T01:53:49.067Z,0.50
2022-09-28T01:56:52.372Z,0.50
2022-09-28T01:59:42.254Z,1.20
2022-09-28T02:02:33.245Z,0.85
2022-09-28T02:05:24.195Z,0.98
2022-09-28T02:08:10.474Z,0.50
2022-09-28T02:11:14.241Z,0.90
2022-09-28T02:14:09.292Z,0.50
2022-09-28T02:16:56.369Z,0.90
2022-09-28T02:19:49.081Z,0.30
2022-09-28T02:22:46.133Z,0.63
2022-09-28T02:25:45.926Z,0.75
2022-09-28T02:28:32.101Z,0.57
2022-09-28T02:31:19.613Z,1.05
2022-09-28T02:34:10.158Z,0.35
2022-09-28T02:36:57.078Z,0.50
2022-09-28T02:39:43.152Z,1.08
2022-09-28T02:42:47.550Z,1.40
2022-09-28T02:45:48.901Z,1.27
2022-09-28T02:48:44.052Z,0.80
2022-09-28T02:51:49.466Z,0.60
2022-09-28T02:55:14.180Z,0.65
2022-09-28T02:58:22.236Z,0.50
2022-09-28T03:01:34.884Z,1.23
2022-09-28T03:04:49.685Z,1.10
2022-09-28T03:08:00.224Z,0.88
2022-09-28T03:10:57.298Z,0.47
2022-09-28T03:13:46.407Z,0.73
2022-09-28T03:16:33.036Z,0.70
2022-09-28T03:19:26.075Z,0.82
2022-09-28T03:22:14.160Z,1.25
2022-09-28T03:24:59.833Z,2.05
2022-09-28T03:27:46.016Z,0.90
2022-09-28T03:30:33.665Z,1.20
2022-09-28T03:33:20.183Z,1.40
2022-09-28T03:36:06.205Z,0.63
2022-09-28T03:38:55.159Z,0.75
2022-09-28T03:41:42.017Z,0.52
2022-09-28T03:44:28.062Z,0.47
2022-09-28T03:47:16.010Z,1.00
2022-09-28T03:50:02.458Z,0.90
2022-09-28T03:52:48.802Z,1.42
2022-09-28T03:55:35.135Z,1.10
2022-09-28T03:58:22.719Z,2.45
2022-09-28T04:01:16.568Z,1.50
2022-09-28T04:04:04.597Z,1.38
2022-09-28T04:06:50.930Z,1.85
2022-09-28T04:09:36.855Z,1.48
2022-09-28T04:12:22.751Z,2.95
2022-09-28T04:15:09.759Z,1.67
2022-09-28T04:17:56.000Z,1.95
2022-09-28T04:21:06.850Z,1.05
2022-09-28T04:23:59.505Z,1.73
2022-09-28T04:26:45.532Z,1.15
2022-09-28T04:29:32.440Z,0.90
2022-09-28T04:32:19.251Z,1.00
2022-09-28T04:35:05.712Z,1.00
2022-09-28T04:37:52.080Z,1.10
2022-09-28T04:40:38.651Z,1.17
2022-09-28T04:43:24.509Z,1.42
2022-09-28T04:46:10.960Z,2.67
2022-09-28T04:49:03.668Z,4.90
2022-09-28T04:52:17.195Z,1.77
2022-09-28T04:55:06.842Z,1.67
2022-09-28T04:57:53.373Z,2.15
2022-09-28T05:00:40.466Z,3.40
2022-09-28T05:03:36.865Z,2.38
2022-09-28T05:06:50.794Z,4.50
2022-09-28T05:09:38.542Z,3.92
2022-09-28T05:12:25.269Z,3.47
2022-09-28T05:15:12.113Z,3.13
2022-09-28T05:17:58.088Z,2.30
2022-09-28T05:20:49.255Z,2.38
2022-09-28T05:23:35.320Z,3.33
2022-09-28T05:26:21.982Z,2.42
2022-09-28T05:29:08.329Z,2.60
2022-09-28T05:32:03.082Z,2.75
2022-09-28T05:35:06.362Z,2.83
2022-09-28T05:38:05.574Z,3.33
2022-09-28T05:40:53.219Z,2.78
2022-09-28T05:43:40.511Z,2.58
2022-09-28T05:46:26.342Z,3.92
2022-09-28T05:49:13.045Z,2.40
2022-09-28T05:52:00.118Z,2.38
2022-09-28T05:54:46.582Z,2.85
2022-09-28T05:57:32.769Z,5.13
2022-09-28T06:00:19.639Z,3.70
2022-09-28T06:03:14.194Z,4.22
2022-09-28T06:06:03.144Z,4.45
2022-09-28T06:08:50.874Z,3.92
2022-09-28T06:12:02.886Z,3.75
2022-09-28T06:14:59.375Z,4.60
2022-09-28T06:17:45.568Z,7.30
2022-09-28T06:20:49.971Z,9.02
2022-09-28T06:23:39.969Z,10.10
2022-09-28T06:26:27.126Z,10.13
2022-09-28T06:29:19.742Z,7.43
2022-09-28T06:32:07.944Z,8.90
2022-09-28T06:34:56.668Z,10.70
2022-09-28T06:37:45.416Z,11.35
2022-09-28T06:40:32.079Z,7.75
2022-09-28T06:43:17.926Z,8.13
2022-09-28T06:49:27.828Z,5.97
2022-09-28T06:52:36.732Z,5.70
2022-09-28T06:55:28.436Z,5.70
2022-09-28T06:58:19.574Z,6.35
2022-09-28T07:01:06.223Z,4.50
2022-09-28T07:04:04.907Z,5.15
2022-09-28T07:07:10.655Z,6.22
2022-09-28T07:10:15.456Z,6.82
2022-09-28T07:13:47.178Z,6.90
2022-09-28T07:16:39.229Z,6.63
2022-09-28T07:19:33.869Z,5.55
2022-09-28T07:22:24.160Z,5.70
2022-09-28T07:25:16.943Z,4.80
2022-09-28T07:28:07.094Z,4.13
2022-09-28T07:31:25.277Z,3.70
2022-09-28T07:34:31.363Z,3.65
2022-09-28T07:37:28.065Z,5.80
2022-09-28T07:40:32.880Z,3.55
2022-09-28T07:43:22.931Z,3.60
2022-09-28T07:46:13.873Z,4.55
2022-09-28T07:49:10.004Z,7.03
2022-09-28T07:52:28.920Z,6.75
2022-09-28T07:55:34.499Z,6.55
2022-09-28T07:58:30.778Z,4.60
2022-09-28T08:01:36.747Z,6.30
2022-09-28T08:04:23.946Z,7.45
2022-09-28T08:07:11.783Z,8.25
2022-09-28T08:09:59.036Z,5.25
2022-09-28T08:12:47.789Z,6.40
2022-09-28T08:16:01.022Z,5.38
2022-09-28T08:19:07.984Z,5.85
2022-09-28T08:21:54.135Z,4.45
2022-09-28T08:24:39.912Z,3.75
2022-09-28T08:27:25.605Z,4.95
2022-09-28T08:30:12.141Z,3.83
2022-09-28T08:33:28.748Z,6.30
2022-09-28T08:36:35.163Z,4.70
2022-09-28T08:39:20.862Z,4.38
2022-09-28T08:42:36.036Z,3.90
2022-09-28T08:45:38.357Z,7.38
2022-09-28T08:49:25.086Z,5.10
2022-09-28T08:52:29.844Z,3.63
2022-09-28T08:55:37.370Z,4.30
2022-09-28T08:58:28.430Z,5.15
2022-09-28T09:01:16.743Z,4.88
2022-09-28T09:04:04.727Z,4.45
2022-09-28T09:07:59.774Z,3.55
2022-09-28T09:10:57.892Z,2.80
2022-09-28T09:14:21.586Z,3.95
2022-09-28T09:17:20.043Z,6.15
2022-09-28T09:20:59.078Z,2.90
2022-09-28T09:24:15.629Z,2.10
2022-09-28T09:27:04.878Z,3.07
2022-09-28T09:29:53.824Z,2.70
2022-09-28T09:32:50.808Z,1.80
2022-09-28T09:35:45.946Z,3.72
2022-09-28T09:38:58.989Z,2.15
2022-09-28T09:42:09.970Z,3.33
2022-09-28T09:45:21.338Z,5.72
2022-09-28T09:48:30.166Z,1.98
2022-09-28T09:51:47.233Z,2.45
2022-09-28T09:54:54.472Z,2.45
2022-09-28T10:01:17.416Z,2.28
2022-09-28T10:04:31.368Z,2.88
2022-09-28T10:07:30.013Z,1.73
2022-09-28T10:10:32.419Z,1.67
2022-09-28T10:13:29.317Z,1.48
2022-09-28T10:16:18.902Z,2.58
2022-09-28T10:19:14.150Z,1.75
2022-09-28T10:22:35.836Z,2.47
2022-09-28T10:25:30.549Z,1.98
2022-09-28T10:28:20.595Z,2.95
2022-09-28T10:31:45.333Z,2.58
2022-09-28T10:34:52.027Z,1.85
2022-09-28T10:38:03.317Z,1.88
2022-09-28T10:41:11.189Z,2.53
2022-09-28T10:44:17.612Z,3.63
2022-09-28T10:47:23.145Z,4.70
2022-09-28T10:50:34.506Z,4.05
2022-09-28T10:53:37.662Z,3.10
2022-09-28T10:56:46.691Z,2.95
2022-09-28T10:59:41.084Z,3.42
2022-09-28T11:02:49.409Z,2.65
2022-09-28T11:05:40.131Z,1.80
2022-09-28T11:08:40.668Z,2.45
2022-09-28T11:11:29.656Z,3.28
2022-09-28T11:14:39.774Z,1.48
2022-09-28T11:17:34.262Z,1.92
2022-09-28T11:20:28.306Z,2.00
2022-09-28T11:23:20.564Z,3.38
2022-09-28T11:26:09.637Z,2.55
2022-09-28T11:28:55.746Z,1.85
2022-09-28T11:31:53.966Z,1.40
2022-09-28T11:34:58.682Z,1.75
2022-09-28T11:38:06.199Z,2.45
2022-09-28T11:41:41.043Z,1.90
2022-09-28T11:44:44.831Z,1.67
2022-09-28T11:47:47.662Z,2.58
2022-09-28T11:50:59.141Z,1.08
2022-09-28T11:53:54.981Z,1.30
2022-09-28T11:56:48.830Z,0.90
2022-09-28T12:02:36.809Z,1.10
2022-09-28T12:05:32.279Z,1.33
2022-09-28T12:08:28.737Z,0.60
2022-09-28T12:11:43.985Z,1.20
2022-09-28T12:14:41.511Z,1.30
2022-09-28T12:17:40.488Z,2.13
2022-09-28T12:20:34.276Z,1.30
2022-09-28T12:23:31.451Z,1.85
2022-09-28T12:26:38.053Z,1.15
2022-09-28T12:29:33.986Z,1.45
2022-09-28T12:32:36.103Z,0.80
2022-09-28T12:35:32.996Z,1.13
2022-09-28T12:39:17.720Z,1.45
2022-09-28T12:42:28.781Z,1.33
2022-09-28T12:45:53.181Z,1.88
2022-09-28T12:48:57.241Z,1.83
2022-09-28T12:51:54.960Z,1.80
2022-09-28T12:55:00.431Z,2.30
2022-09-28T12:58:22.873Z,1.35
2022-09-28T13:01:29.116Z,2.38
2022-09-28T13:04:36.980Z,2.53
2022-09-28T13:07:31.611Z,1.83
2022-09-28T13:10:32.718Z,2.42
2022-09-28T13:14:01.954Z,2.40
2022-09-28T13:17:30.427Z,1.20
2022-09-28T13:20:32.310Z,1.70
2022-09-28T13:23:35.968Z,1.83
2022-09-28T13:26:28.900Z,2.15
2022-09-28T13:29:17.572Z,2.47
2022-09-28T13:32:03.935Z,1.58
2022-09-28T13:34:50.694Z,0.85
2022-09-28T13:37:36.889Z,1.27
2022-09-28T13:41:00.793Z,1.42
2022-09-28T13:44:07.981Z,1.13
2022-09-28T13:47:10.326Z,2.78
2022-09-28T13:50:24.766Z,3.03
2022-09-28T13:53:53.359Z,5.80
2022-09-28T13:56:50.867Z,2.13
2022-09-28T14:00:08.657Z,1.75
2022-09-28T14:03:25.688Z,2.47
2022-09-28T14:06:49.514Z,1.63
2022-09-28T14:10:06.297Z,2.00
2022-09-28T14:12:53.366Z,3.60
2022-09-28T14:15:45.024Z,1.50
2022-09-28T14:18:34.412Z,2.78
2022-09-28T14:21:58.338Z,2.65
2022-09-28T14:25:08.784Z,4.00
2022-09-28T14:28:29.461Z,5.07
2022-09-28T14:31:30.579Z,4.85
2022-09-28T14:34:43.338Z,5.82
2022-09-28T14:37:53.382Z,5.55
2022-09-28T14:41:19.720Z,3.80
2022-09-28T14:44:13.588Z,6.80
2022-09-28T14:47:26.354Z,5.28
2022-09-28T14:50:22.386Z,6.07
2022-09-28T14:53:13.622Z,5.30
2022-09-28T14:56:00.315Z,3.97
2022-09-28T14:58:46.690Z,4.78
2022-09-28T15:01:34.335Z,3.60
2022-09-28T15:04:21.501Z,5.60
2022-09-28T15:07:23.540Z,5.65
2022-09-28T15:10:27.759Z,3.90
2022-09-28T15:13:26.894Z,4.05
2022-09-28T15:16:14.789Z,5.88
2022-09-28T15:19:24.415Z,4.43
2022-09-28T15:22:17.975Z,3.28
2022-09-28T15:25:05.808Z,4.25
2022-09-28T15:27:57.163Z,4.20
2022-09-28T15:30:43.920Z,5.35
2022-09-28T15:33:53.210Z,3.67
2022-09-28T15:36:44.234Z,3.83
2022-09-28T15:39:31.087Z,5.03
2022-09-28T15:42:17.682Z,3.25
2022-09-28T15:45:25.495Z,3.97
2022-09-28T15:48:20.747Z,3.75
2022-09-28T15:51:12.995Z,4.75
2022-09-28T15:54:25.490Z,2.67
2022-09-28T15:57:35.502Z,4.13
2022-09-28T16:00:21.614Z,3.75
2022-09-28T16:03:07.697Z,3.95
2022-09-28T16:05:59.445Z,3.50
2022-09-28T16:08:46.286Z,2.80
2022-09-28T16:11:38.481Z,4.22
2022-09-28T16:14:26.433Z,5.75
2022-09-28T16:17:23.261Z,4.57
2022-09-28T16:20:29.524Z,5.85
2022-09-28T16:23:28.738Z,4.35
2022-09-28T16:26:31.222Z,3.33
2022-09-28T16:29:42.038Z,5.82
2022-09-28T16:32:33.448Z,4.53
2022-09-28T16:35:23.052Z,2.67
2022-09-28T16:38:14.558Z,3.88
2022-09-28T16:41:02.039Z,5.78
2022-09-28T16:43:48.248Z,4.80
2022-09-28T16:46:39.395Z,3.20
2022-09-28T16:49:26.898Z,4.20
2022-09-28T16:52:13.768Z,3.55
2022-09-28T16:58:25.215Z,3.03
2022-09-28T17:01:12.027Z,4.40
2022-09-28T17:03:57.945Z,4.75
2022-09-28T17:06:43.852Z,4.50
2022-09-28T17:09:29.797Z,4.00
2022-09-28T17:12:20.339Z,4.88
2022-09-28T17:15:06.861Z,4.28
2022-09-28T17:17:52.833Z,3.83
2022-09-28T17:20:40.174Z,4.90
2022-09-28T17:23:27.017Z,3.55
2022-09-28T17:26:22.083Z,3.58
2022-09-28T17:29:12.425Z,3.92
2022-09-28T17:31:58.598Z,4.07
2022-09-28T17:34:51.601Z,7.55
2022-09-28T17:37:42.442Z,8.15
2022-09-28T17:40:29.777Z,7.78
2022-09-28T17:43:15.974Z,7.60
2022-09-28T17:46:02.376Z,7.22
2022-09-28T17:48:49.201Z,7.38
2022-09-28T17:51:37.729Z,9.10
2022-09-28T17:54:25.953Z,7.60
2022-09-28T17:57:13.277Z,6.18
2022-09-28T17:59:59.662Z,5.50
2022-09-28T18:02:46.054Z,6.13
2022-09-28T18:05:32.350Z,4.90
2022-09-28T18:08:20.345Z,6.43
2022-09-28T18:11:06.265Z,4.43
2022-09-28T18:13:52.447Z,7.28
2022-09-28T18:16:38.358Z,3.95
2022-09-28T18:19:31.679Z,5.57
2022-09-28T18:22:18.574Z,4.05
2022-09-28T18:25:05.574Z,4.05
2022-09-28T18:27:54.551Z,4.40
2022-09-28T18:30:42.606Z,4.50
2022-09-28T18:33:28.622Z,5.05
2022-09-28T18:36:14.893Z,4.65
2022-09-28T18:39:01.616Z,5.35
2022-09-28T18:41:47.560Z,8.20
2022-09-28T18:44:34.163Z,4.10
2022-09-28T18:47:20.919Z,4.07
2022-09-28T18:50:08.022Z,6.28
2022-09-28T18:52:54.048Z,3.95
2022-09-28T18:55:41.914Z,4.63
2022-09-28T18:58:28.504Z,3.17
2022-09-28T19:01:32.654Z,2.67
2022-09-28T19:04:20.519Z,3.53
2022-09-28T19:07:07.966Z,3.83
2022-09-28T19:09:53.933Z,3.30
2022-09-28T19:12:40.123Z,2.47
2022-09-28T19:15:26.211Z,2.92
2022-09-28T19:18:12.008Z,3.30
2022-09-28T19:21:02.589Z,2.45
2022-09-28T19:23:49.674Z,3.35
2022-09-28T19:26:36.006Z,2.47
2022-09-28T19:29:22.741Z,3.53
2022-09-28T19:32:08.807Z,2.45
2022-09-28T19:34:55.315Z,3.72
2022-09-28T19:37:41.152Z,5.10
2022-09-28T19:40:27.240Z,6.05
2022-09-28T19:43:13.745Z,7.45
2022-09-28T19:46:04.466Z,10.07
2022-09-28T19:48:50.404Z,9.88
2022-09-28T19:51:38.794Z,14.25
2022-09-28T19:54:35.693Z,11.77
2022-09-28T19:57:27.952Z,8.88
2022-09-28T20:00:14.133Z,10.57
2022-09-28T20:03:00.317Z,10.60
2022-09-28T20:05:49.315Z,8.52
2022-09-28T20:08:35.662Z,7.47
2022-09-28T20:11:21.987Z,7.18
2022-09-28T20:14:09.803Z,7.95
2022-09-28T20:16:56.116Z,9.13
2022-09-28T20:19:42.325Z,6.03
2022-09-28T20:22:29.391Z,6.03
2022-09-28T20:25:15.515Z,6.72
2022-09-28T20:28:01.617Z,8.40
2022-09-28T20:30:47.430Z,6.18
2022-09-28T20:33:34.839Z,6.45
2022-09-28T20:36:23.484Z,4.80
2022-09-28T20:39:10.514Z,4.30
2022-09-28T20:41:57.706Z,4.22
2022-09-28T20:44:46.554Z,4.97
2022-09-28T20:47:32.676Z,5.13
2022-09-28T20:50:19.915Z,5.45
2022-09-28T20:53:05.874Z,7.03
2022-09-28T20:55:59.698Z,7.50
2022-09-28T20:58:46.208Z,7.82
2022-09-28T21:01:32.487Z,7.45
2022-09-28T21:04:18.677Z,7.18
2022-09-28T21:07:04.717Z,4.55
2022-09-28T21:09:50.643Z,5.15
2022-09-28T21:12:37.037Z,4.88
2022-09-28T21:15:23.403Z,6.22
2022-09-28T21:18:09.421Z,4.72
2022-09-28T21:20:55.457Z,4.60
2022-09-28T21:23:46.414Z,4.72
2022-09-28T21:26:32.948Z,5.85
2022-09-28T21:29:19.039Z,5.82
2022-09-28T21:32:06.054Z,4.28
2022-09-28T21:34:52.046Z,4.28
2022-09-28T21:37:38.101Z,7.05
2022-09-28T21:40:24.193Z,5.65
2022-09-28T21:43:09.973Z,6.53
2022-09-28T21:45:56.571Z,8.25
2022-09-28T21:48:42.902Z,6.28
2022-09-28T21:51:30.149Z,5.00
2022-09-28T21:54:16.202Z,5.10
2022-09-28T21:57:02.122Z,4.47
2022-09-28T21:59:48.220Z,6.85
2022-09-28T22:02:34.046Z,6.10
2022-09-28T22:05:20.297Z,3.40
2022-09-28T22:08:06.399Z,4.82
2022-09-28T22:11:10.755Z,3.78
2022-09-28T22:16:43.434Z,5.10
2022-09-28T22:19:29.354Z,4.15
2022-09-28T22:22:15.047Z,3.63
2022-09-28T22:25:01.125Z,2.92
2022-09-28T22:27:46.899Z,3.80
2022-09-28T22:30:34.811Z,3.60
2022-09-28T22:33:20.724Z,3.15
2022-09-28T22:36:07.958Z,3.53
2022-09-28T22:38:57.889Z,5.50
2022-09-28T22:41:44.133Z,4.38
2022-09-28T22:44:29.869Z,4.18
2022-09-28T22:47:15.560Z,4.43
2022-09-28T22:50:01.247Z,2.95
2022-09-28T22:52:48.532Z,3.25
2022-09-28T22:55:34.493Z,4.25
2022-09-28T22:58:20.642Z,7.03
2022-09-28T23:01:11.632Z,4.90
2022-09-28T23:03:58.277Z,3.17
2022-09-28T23:06:44.270Z,3.78
2022-09-28T23:09:30.075Z,4.45
2022-09-28T23:12:15.742Z,4.85
2022-09-28T23:15:01.775Z,5.63
2022-09-28T23:17:53.847Z,4.93
2022-09-28T23:20:39.813Z,4.03
2022-09-28T23:23:26.256Z,4.28
2022-09-28T23:26:12.180Z,4.40
2022-09-28T23:28:58.954Z,3.05
2022-09-28T23:31:45.506Z,4.28
2022-09-28T23:34:31.955Z,4.50
2022-09-28T23:37:17.713Z,4.72
2022-09-28T23:40:06.938Z,6.35
2022-09-28T23:42:52.614Z,3.03
2022-09-28T23:45:38.449Z,4.05
2022-09-28T23:48:24.121Z,3.33
2022-09-28T23:51:10.165Z,3.10
2022-09-28T23:53:56.287Z,4.00
2022-09-28T23:56:42.301Z,2.15
2022-09-28T23:59:28.053Z,2.17
